Esquiu, Argentina
Current Conditions -  °F | °C
As of 10:00 PM on Wednesday 17 Dec 2014 (Local Time) from SACO Reporting Station
Scattered Clouds Scattered Clouds  
Wind Chill: 20°   Ceiling: Unl
Heat Index: 20°   Visibility: 6mi
Dew Point: 16°   Wind: 2mph
Humidity: 78%   Direction: 360°N
Pressure: 30.03"   Gusts: NA
Location:  29.38°S, 65.28°W
Report Text: SACO 180100Z 36002KT 9999 SCT020 20/16 Q1017
Loading
Personal Weather Stations






























Interactive Weather Map New forecast layout! Learn more

10-Day Weather Forecast

Advertisements
Track Severe Weather on mobile